Time;durP1;ratioP1;P1;durP2;ratioP2;P2;SDS_P1;SDS_P2;PMS_P1;PMS_P2;Temp;Humidity;BMP_temperature;BMP_pressure;BME280_temperature;BME280_humidity;BME280_pressure;Samples;Min_cycle;Max_cycle;Signal;HPM_P1;HPM_P2
2021/10/16 00:01:21;;;;;;;7.15;3.17;;;8.40;1.00;;;;;;5057995;28;20228;-80
2021/10/16 00:03:49;;;;;;;9.65;2.97;;;8.30;1.00;;;;;;5061481;28;20303;-80
2021/10/16 00:06:16;;;;;;;14.65;3.95;;;8.30;1.00;;;;;;5055690;28;21796;-80
2021/10/16 00:08:43;;;;;;;6.75;3.65;;;8.30;1.00;;;;;;5059176;28;20434;-80
2021/10/16 00:11:10;;;;;;;12.18;3.40;;;8.30;1.00;;;;;;5050387;28;20230;-80
2021/10/16 00:13:37;;;;;;;8.02;3.38;;;8.20;1.00;;;;;;5051665;28;20227;-81
2021/10/16 00:16:05;;;;;;;7.90;3.30;;;8.20;1.00;;;;;;5052959;28;20286;-80
2021/10/16 00:18:33;;;;;;;9.88;3.00;;;8.10;1.00;;;;;;5050663;28;20233;-81
2021/10/16 00:21:00;;;;;;;6.88;3.00;;;8.10;1.00;;;;;;5062726;28;20230;-80
2021/10/16 00:23:27;;;;;;;6.22;2.70;;;8.10;1.00;;;;;;5052931;28;20820;-81
2021/10/16 00:25:54;;;;;;;9.82;3.80;;;8.10;1.00;;;;;;5056229;28;21101;-80
2021/10/16 00:28:21;;;;;;;8.30;3.30;;;8.10;1.00;;;;;;5052494;28;20226;-80
2021/10/16 00:30:47;;;;;;;6.90;3.58;;;8.10;1.00;;;;;;5053146;28;20225;-81
2021/10/16 00:33:15;;;;;;;7.53;3.13;;;8.10;1.00;;;;;;5049748;28;20226;-80
2021/10/16 00:35:43;;;;;;;8.70;3.55;;;8.10;1.00;;;;;;5059575;28;20221;-80
2021/10/16 00:38:10;;;;;;;14.23;4.60;;;8.10;1.00;;;;;;5054445;28;20240;-80
2021/10/16 00:40:37;;;;;;;8.48;3.30;;;8.10;1.00;;;;;;5058843;28;20221;-80
2021/10/16 00:43:04;;;;;;;5.80;3.70;;;8.10;1.00;;;;;;5054874;28;20225;-80
2021/10/16 00:45:30;;;;;;;12.23;3.80;;;8.00;1.00;;;;;;5044229;28;20673;-80
2021/10/16 00:47:57;;;;;;;9.90;3.38;;;8.00;1.00;;;;;;5054685;28;20286;-80
2021/10/16 00:50:24;;;;;;;6.50;3.42;;;8.00;1.00;;;;;;5053142;28;20216;-79
2021/10/16 00:52:52;;;;;;;12.52;3.38;;;8.00;1.00;;;;;;5052399;28;20355;-80
2021/10/16 00:55:21;;;;;;;11.82;4.00;;;8.00;1.00;;;;;;5053819;28;20734;-80
2021/10/16 00:57:47;;;;;;;6.00;3.25;;;8.00;1.00;;;;;;5055653;28;20242;-80
2021/10/16 01:00:15;;;;;;;8.70;4.80;;;8.00;1.00;;;;;;5052754;28;20339;-80
2021/10/16 01:02:42;;;;;;;8.02;3.58;;;8.00;1.00;;;;;;5049590;28;20225;-80
2021/10/16 01:05:10;;;;;;;8.38;3.65;;;8.00;1.00;;;;;;5053632;28;20227;-81
2021/10/16 01:07:38;;;;;;;6.18;4.15;;;8.00;1.00;;;;;;5053196;28;20236;-81
2021/10/16 01:10:08;;;;;;;8.10;4.40;;;8.00;1.00;;;;;;5056970;28;20233;-80
2021/10/16 01:12:38;;;;;;;9.15;6.07;;;7.90;1.00;;;;;;5055667;28;20222;-80
2021/10/16 01:15:07;;;;;;;12.38;4.32;;;7.90;1.00;;;;;;5060052;28;20230;-81
2021/10/16 01:17:35;;;;;;;6.80;2.88;;;7.90;1.00;;;;;;5057609;28;20228;-81
2021/10/16 01:20:05;;;;;;;11.95;3.97;;;7.90;1.00;;;;;;5059741;28;20223;-80
2021/10/16 01:22:36;;;;;;;10.18;3.65;;;7.90;1.00;;;;;;5066931;28;20226;-80
2021/10/16 01:25:06;;;;;;;6.95;3.10;;;7.90;1.00;;;;;;5082376;28;20243;-80
2021/10/16 01:27:33;;;;;;;6.85;3.10;;;7.90;1.00;;;;;;5073252;28;20226;-80
2021/10/16 01:30:00;;;;;;;5.63;2.88;;;7.90;1.00;;;;;;5061807;28;20229;-80
2021/10/16 01:32:26;;;;;;;7.00;2.90;;;7.90;1.00;;;;;;5060912;28;20229;-80
2021/10/16 01:34:53;;;;;;;9.07;3.00;;;7.90;1.00;;;;;;5054802;28;20240;-80
2021/10/16 01:37:20;;;;;;;11.15;3.25;;;7.90;1.00;;;;;;5057229;28;20239;-81
2021/10/16 01:39:48;;;;;;;10.00;3.70;;;7.80;1.00;;;;;;5054909;28;20224;-81
2021/10/16 01:42:15;;;;;;;8.10;3.80;;;7.90;1.00;;;;;;5053985;28;20222;-81
2021/10/16 01:44:43;;;;;;;8.48;3.42;;;7.90;1.00;;;;;;5057195;28;20629;-81
2021/10/16 01:47:09;;;;;;;8.32;3.00;;;7.80;1.00;;;;;;5059415;28;20227;-81
2021/10/16 01:49:37;;;;;;;9.38;2.88;;;7.80;1.00;;;;;;5053092;28;20435;-81
2021/10/16 01:52:05;;;;;;;8.60;3.15;;;7.80;1.00;;;;;;5057165;28;20232;-81
2021/10/16 01:54:32;;;;;;;8.18;3.00;;;7.80;1.00;;;;;;5053871;28;20259;-81
2021/10/16 01:57:00;;;;;;;9.75;3.72;;;7.80;1.00;;;;;;5054678;28;20240;-81
2021/10/16 01:59:28;;;;;;;7.35;3.03;;;7.80;1.00;;;;;;5062211;28;20228;-81
2021/10/16 02:01:55;;;;;;;7.85;3.05;;;7.80;1.00;;;;;;5064377;28;20276;-81
2021/10/16 02:04:22;;;;;;;10.98;3.95;;;7.80;1.00;;;;;;5060551;28;20236;-81
2021/10/16 02:06:49;;;;;;;8.82;3.17;;;7.80;1.00;;;;;;5061211;28;21619;-80
2021/10/16 02:09:15;;;;;;;7.18;2.47;;;7.80;1.00;;;;;;5056823;28;20230;-81
2021/10/16 02:11:42;;;;;;;7.28;2.75;;;7.80;1.00;;;;;;5055562;28;20736;-81
2021/10/16 02:14:10;;;;;;;6.65;3.33;;;7.80;1.00;;;;;;5054878;28;20224;-81
2021/10/16 02:16:37;;;;;;;6.45;3.00;;;7.80;1.00;;;;;;5053350;28;20247;-80
2021/10/16 02:19:04;;;;;;;5.45;2.60;;;7.80;1.00;;;;;;5052975;28;21516;-81
2021/10/16 02:21:31;;;;;;;10.27;3.13;;;7.80;1.00;;;;;;5055638;28;20220;-81
2021/10/16 02:23:58;;;;;;;7.82;3.42;;;7.80;1.00;;;;;;5057351;28;20233;-81
2021/10/16 02:26:24;;;;;;;7.38;2.65;;;7.80;1.00;;;;;;5055589;28;20770;-81
2021/10/16 02:28:52;;;;;;;6.40;3.10;;;7.80;1.00;;;;;;5053355;28;20221;-80
2021/10/16 02:31:21;;;;;;;7.35;3.33;;;7.80;1.00;;;;;;5058901;28;20213;-80
2021/10/16 02:33:49;;;;;;;5.97;2.55;;;7.80;1.00;;;;;;5055196;28;20239;-81
2021/10/16 02:36:16;;;;;;;7.93;2.70;;;7.90;1.00;;;;;;5059631;28;20231;-80
2021/10/16 02:38:42;;;;;;;6.13;3.50;;;7.90;1.00;;;;;;5054227;28;20221;-79
2021/10/16 02:41:09;;;;;;;5.70;3.10;;;7.90;1.00;;;;;;5058522;28;20969;-80
2021/10/16 02:43:36;;;;;;;7.55;2.38;;;7.90;1.00;;;;;;5056838;28;20220;-80
2021/10/16 02:46:02;;;;;;;10.63;3.95;;;7.90;1.00;;;;;;5059963;28;20235;-80
2021/10/16 02:48:30;;;;;;;9.75;3.88;;;7.90;1.00;;;;;;5059393;28;20232;-80
2021/10/16 02:50:57;;;;;;;6.25;2.70;;;7.90;1.00;;;;;;5082558;28;20223;-79
2021/10/16 02:53:23;;;;;;;7.90;3.00;;;7.90;1.00;;;;;;5074694;28;20311;-80
2021/10/16 02:55:50;;;;;;;10.38;3.22;;;7.90;1.00;;;;;;5061349;28;20238;-80
2021/10/16 02:58:16;;;;;;;8.57;2.88;;;7.90;1.00;;;;;;5061583;28;21194;-80
2021/10/16 03:00:43;;;;;;;5.57;3.17;;;7.90;1.00;;;;;;5061236;28;20251;-80
2021/10/16 03:03:10;;;;;;;7.20;3.30;;;7.90;1.00;;;;;;5060445;28;20232;-80
2021/10/16 03:05:38;;;;;;;7.80;2.80;;;7.90;1.00;;;;;;5059664;28;20653;-80
2021/10/16 03:08:05;;;;;;;7.88;2.97;;;7.90;1.00;;;;;;5060358;28;20218;-80
2021/10/16 03:10:31;;;;;;;10.40;3.35;;;7.80;1.00;;;;;;5060432;28;20225;-80
2021/10/16 03:12:58;;;;;;;9.30;3.60;;;7.90;1.00;;;;;;5062217;28;21146;-80
2021/10/16 03:15:25;;;;;;;9.18;3.00;;;7.80;1.00;;;;;;5058084;28;20235;-80
2021/10/16 03:17:51;;;;;;;9.40;3.28;;;7.80;1.00;;;;;;5060541;28;20243;-81
2021/10/16 03:20:18;;;;;;;6.82;2.92;;;7.80;1.00;;;;;;5057489;28;21504;-80
2021/10/16 03:22:46;;;;;;;7.40;2.78;;;7.90;1.00;;;;;;5057793;28;20229;-80
2021/10/16 03:25:12;;;;;;;10.07;3.38;;;7.90;1.00;;;;;;5058054;28;20233;-80
2021/10/16 03:27:39;;;;;;;8.15;2.45;;;7.90;1.00;;;;;;5059706;28;20227;-80
2021/10/16 03:30:06;;;;;;;8.15;3.53;;;7.80;1.00;;;;;;5058971;28;20712;-80
2021/10/16 03:32:33;;;;;;;7.95;3.72;;;7.80;1.00;;;;;;5057167;28;20232;-80
2021/10/16 03:34:59;;;;;;;5.18;2.40;;;7.90;1.00;;;;;;5055369;28;20237;-80
2021/10/16 03:37:26;;;;;;;10.07;4.20;;;7.90;1.00;;;;;;5059265;28;20235;-80
2021/10/16 03:39:54;;;;;;;10.02;3.33;;;8.00;1.00;;;;;;5054424;28;20226;-79
2021/10/16 03:42:20;;;;;;;7.60;3.42;;;8.10;1.00;;;;;;5059678;28;20228;-80
2021/10/16 03:44:47;;;;;;;9.40;3.15;;;8.20;1.00;;;;;;5055697;28;20239;-80
2021/10/16 03:47:14;;;;;;;8.68;2.95;;;8.20;1.00;;;;;;5060600;28;20672;-81
2021/10/16 03:49:40;;;;;;;9.32;3.40;;;8.30;1.00;;;;;;5057654;28;20307;-79
2021/10/16 03:52:07;;;;;;;10.38;3.22;;;8.30;1.00;;;;;;5069603;28;20292;-79
2021/10/16 03:54:34;;;;;;;13.60;4.30;;;8.40;1.00;;;;;;5079465;28;20215;-81
2021/10/16 03:57:04;;;;;;;11.82;3.20;;;8.50;1.00;;;;;;5072212;28;20331;-80
2021/10/16 03:59:31;;;;;;;9.60;3.42;;;8.50;1.00;;;;;;5063021;28;20226;-80
2021/10/16 04:01:58;;;;;;;8.23;2.90;;;8.60;1.00;;;;;;5061472;28;20828;-81
2021/10/16 04:04:25;;;;;;;8.45;2.75;;;8.60;1.00;;;;;;5063229;28;20232;-80
2021/10/16 04:06:51;;;;;;;10.70;4.75;;;8.70;1.00;;;;;;5060229;28;20232;-81
2021/10/16 04:09:18;;;;;;;8.00;3.67;;;8.70;1.00;;;;;;5062419;28;20222;-82
2021/10/16 04:11:45;;;;;;;13.05;2.88;;;8.70;1.00;;;;;;5072719;28;20216;-81
2021/10/16 04:14:13;;;;;;;6.57;2.20;;;8.70;1.00;;;;;;5065349;28;20230;-81
2021/10/16 04:16:39;;;;;;;5.40;2.30;;;8.70;1.00;;;;;;5056543;28;20225;-80
2021/10/16 04:19:06;;;;;;;9.73;2.67;;;8.80;1.00;;;;;;5059262;28;20222;-81
2021/10/16 04:21:32;;;;;;;8.27;3.40;;;8.80;1.00;;;;;;5058224;28;20224;-81
2021/10/16 04:24:00;;;;;;;6.53;3.33;;;8.80;1.00;;;;;;5061277;28;20499;-80
2021/10/16 04:26:26;;;;;;;5.72;3.13;;;8.80;1.00;;;;;;5057071;28;20262;-80
2021/10/16 04:28:53;;;;;;;8.52;3.67;;;8.90;1.00;;;;;;5057980;28;20311;-79
2021/10/16 04:31:22;;;;;;;8.57;2.63;;;8.90;1.00;;;;;;5056632;28;20215;-79
2021/10/16 04:33:49;;;;;;;8.35;2.78;;;8.90;1.00;;;;;;5056163;28;20229;-80
2021/10/16 04:36:15;;;;;;;9.57;3.42;;;9.00;1.00;;;;;;5066511;28;21546;-80
2021/10/16 04:38:45;;;;;;;8.15;2.70;;;9.00;1.00;;;;;;5073473;28;21316;-78
2021/10/16 04:41:12;;;;;;;9.13;4.03;;;9.00;1.00;;;;;;5072570;28;20260;-79
2021/10/16 04:43:41;;;;;;;8.00;2.95;;;9.00;1.00;;;;;;5068458;28;20465;-79
2021/10/16 04:46:08;;;;;;;9.32;3.38;;;9.00;1.00;;;;;;5068691;28;21324;-80
2021/10/16 04:48:38;;;;;;;10.13;4.20;;;9.00;1.00;;;;;;5069623;28;20223;-80
2021/10/16 04:51:05;;;;;;;9.57;3.60;;;9.00;1.00;;;;;;5061184;28;20746;-79
2021/10/16 04:53:32;;;;;;;7.45;3.40;;;9.00;1.00;;;;;;5062075;28;20476;-80
2021/10/16 04:55:59;;;;;;;9.65;2.88;;;9.00;1.00;;;;;;5064753;28;20228;-81
2021/10/16 04:58:25;;;;;;;8.73;3.25;;;9.00;1.00;;;;;;5070657;28;20241;-80
2021/10/16 05:00:52;;;;;;;5.40;2.38;;;9.00;1.00;;;;;;5059135;28;21437;-80
2021/10/16 05:03:19;;;;;;;10.57;3.28;;;9.00;1.00;;;;;;5063024;28;20382;-80
2021/10/16 05:05:47;;;;;;;8.07;2.60;;;9.00;1.00;;;;;;5064548;28;20330;-80
2021/10/16 05:08:14;;;;;;;9.43;2.55;;;9.00;1.00;;;;;;5058069;28;21212;-80
2021/10/16 05:10:40;;;;;;;7.35;2.95;;;9.00;1.00;;;;;;5064281;28;20229;-80
2021/10/16 05:13:07;;;;;;;11.95;3.33;;;8.90;1.00;;;;;;5059770;28;20222;-80
2021/10/16 05:15:34;;;;;;;5.95;3.00;;;8.90;1.00;;;;;;5061881;28;20256;-79
2021/10/16 05:18:00;;;;;;;7.00;2.85;;;8.90;1.00;;;;;;5061998;28;20240;-81
2021/10/16 05:20:27;;;;;;;8.02;2.33;;;8.90;1.00;;;;;;5063296;28;21126;-80
2021/10/16 05:22:55;;;;;;;7.80;3.10;;;8.90;1.00;;;;;;5067127;28;20209;-80
2021/10/16 05:25:22;;;;;;;4.50;2.85;;;8.90;1.00;;;;;;5078546;28;20233;-80
2021/10/16 05:27:49;;;;;;;8.13;3.10;;;8.90;1.00;;;;;;5073554;28;20239;-79
2021/10/16 05:30:17;;;;;;;8.43;2.67;;;8.90;1.00;;;;;;5083438;28;20230;-80
2021/10/16 05:32:44;;;;;;;7.30;3.10;;;8.90;1.00;;;;;;5068480;28;20466;-80
2021/10/16 05:35:11;;;;;;;5.50;2.97;;;8.90;1.00;;;;;;5061511;28;20227;-80
2021/10/16 05:37:38;;;;;;;7.90;3.88;;;8.90;1.00;;;;;;5064618;28;20229;-80
2021/10/16 05:40:07;;;;;;;8.40;3.13;;;8.80;1.00;;;;;;5062013;28;20222;-80
2021/10/16 05:42:33;;;;;;;11.33;2.93;;;8.80;1.00;;;;;;5065506;28;20231;-79
2021/10/16 05:45:02;;;;;;;8.55;3.13;;;8.70;1.00;;;;;;5059599;28;20480;-79
2021/10/16 05:47:29;;;;;;;10.32;2.70;;;8.70;1.00;;;;;;5063845;28;21167;-79
2021/10/16 05:49:56;;;;;;;6.70;3.37;;;8.70;1.00;;;;;;5061292;28;20236;-79
2021/10/16 05:52:22;;;;;;;7.20;3.72;;;8.70;1.00;;;;;;5062617;28;20440;-80
2021/10/16 05:54:49;;;;;;;6.80;2.80;;;8.60;1.00;;;;;;5063059;28;20227;-81
2021/10/16 05:57:17;;;;;;;9.80;4.15;;;8.60;1.00;;;;;;5061923;28;20217;-81
2021/10/16 05:59:44;;;;;;;6.55;2.95;;;8.60;1.00;;;;;;5065018;28;20220;-80
2021/10/16 06:02:10;;;;;;;6.93;2.75;;;8.60;1.00;;;;;;5063688;28;20243;-81
2021/10/16 06:04:37;;;;;;;8.25;3.22;;;8.50;1.00;;;;;;5063008;28;20227;-81
2021/10/16 06:07:04;;;;;;;7.10;3.30;;;8.50;1.00;;;;;;5068321;28;20221;-81
2021/10/16 06:09:31;;;;;;;9.00;4.45;;;8.50;1.00;;;;;;5063751;28;20221;-81
2021/10/16 06:11:58;;;;;;;7.88;3.47;;;8.50;1.00;;;;;;5076586;28;20271;-80
2021/10/16 06:14:26;;;;;;;11.98;3.58;;;8.50;1.00;;;;;;5074991;28;20343;-81
2021/10/16 06:16:53;;;;;;;10.30;3.63;;;8.60;1.00;;;;;;5071375;28;20226;-80
2021/10/16 06:19:19;;;;;;;5.85;3.75;;;8.60;1.00;;;;;;5064052;28;20233;-81
2021/10/16 06:21:46;;;;;;;9.70;4.10;;;8.70;1.00;;;;;;5069153;28;20712;-80
2021/10/16 06:24:13;;;;;;;6.43;3.17;;;8.70;1.00;;;;;;5064261;28;20229;-81
2021/10/16 06:26:40;;;;;;;15.10;4.55;;;8.80;1.00;;;;;;5073112;28;21149;-81
2021/10/16 06:29:07;;;;;;;7.43;3.38;;;8.70;1.00;;;;;;5073740;28;20258;-81
2021/10/16 06:31:36;;;;;;;9.73;3.55;;;8.70;1.00;;;;;;5088092;28;20204;-80
2021/10/16 06:34:03;;;;;;;10.00;4.10;;;8.70;1.00;;;;;;5072184;28;20236;-81
2021/10/16 06:36:30;;;;;;;7.93;3.08;;;8.70;1.00;;;;;;5065972;28;20913;-80
2021/10/16 06:38:58;;;;;;;8.35;3.80;;;8.80;1.00;;;;;;5068429;28;20233;-81
2021/10/16 06:41:25;;;;;;;11.63;3.80;;;8.80;1.00;;;;;;5067904;28;20230;-80
2021/10/16 06:43:52;;;;;;;10.45;4.15;;;8.80;1.00;;;;;;5071985;28;20329;-81
2021/10/16 06:46:19;;;;;;;8.07;3.42;;;8.90;1.00;;;;;;5068680;28;20305;-79
2021/10/16 06:48:47;;;;;;;10.38;5.82;;;9.00;1.00;;;;;;5069156;28;20221;-81
2021/10/16 06:51:14;;;;;;;6.93;3.72;;;9.10;1.00;;;;;;5060743;28;20237;-81
2021/10/16 06:53:41;;;;;;;8.15;3.55;;;9.10;1.00;;;;;;5064588;28;20225;-81
2021/10/16 06:56:09;;;;;;;11.43;3.65;;;9.10;1.00;;;;;;5064866;28;20232;-80
2021/10/16 06:58:36;;;;;;;7.65;5.75;;;9.20;1.00;;;;;;5061636;28;20239;-80
2021/10/16 07:01:02;;;;;;;7.90;4.68;;;9.20;1.00;;;;;;5067177;28;20221;-80
2021/10/16 07:03:29;;;;;;;7.80;3.53;;;9.20;1.00;;;;;;5060433;28;20221;-80
2021/10/16 07:05:58;;;;;;;12.68;4.55;;;9.20;1.00;;;;;;5065575;28;20217;-81
2021/10/16 07:08:28;;;;;;;9.32;4.00;;;9.10;1.00;;;;;;5058224;28;21727;-80
2021/10/16 07:10:55;;;;;;;9.30;4.00;;;9.10;1.00;;;;;;5070716;28;20222;-81
2021/10/16 07:13:22;;;;;;;11.43;3.97;;;9.00;1.00;;;;;;5057327;28;20223;-80
2021/10/16 07:15:49;;;;;;;10.73;3.83;;;9.00;1.00;;;;;;5061399;28;20264;-81
2021/10/16 07:18:15;;;;;;;11.23;5.57;;;9.10;1.00;;;;;;5056168;28;20234;-81
2021/10/16 07:20:42;;;;;;;9.68;3.67;;;9.10;1.00;;;;;;5062560;28;20225;-81
2021/10/16 07:23:10;;;;;;;6.35;3.63;;;9.20;1.00;;;;;;5057232;28;20221;-81
2021/10/16 07:25:37;;;;;;;7.13;3.67;;;9.10;1.00;;;;;;5060504;28;20232;-81
2021/10/16 07:28:04;;;;;;;8.55;3.97;;;9.10;1.00;;;;;;5060318;28;20224;-80
2021/10/16 07:30:30;;;;;;;8.23;4.90;;;9.10;1.00;;;;;;5057382;28;20230;-81
2021/10/16 07:32:57;;;;;;;7.72;4.35;;;9.10;1.00;;;;;;5061116;28;20912;-80
2021/10/16 07:35:24;;;;;;;6.95;3.92;;;9.20;1.00;;;;;;5062013;28;20337;-81
2021/10/16 07:37:50;;;;;;;8.68;4.32;;;9.20;1.00;;;;;;5064776;28;20399;-81
2021/10/16 07:40:19;;;;;;;11.35;4.07;;;9.30;1.00;;;;;;5058266;28;20245;-81
2021/10/16 07:42:45;;;;;;;8.20;4.22;;;9.30;1.00;;;;;;5062201;28;21810;-80
2021/10/16 07:45:12;;;;;;;12.75;7.55;;;9.40;1.00;;;;;;5055732;28;21321;-80
2021/10/16 07:47:38;;;;;;;8.77;4.00;;;9.50;1.00;;;;;;5062202;28;20225;-80
2021/10/16 07:50:06;;;;;;;11.73;4.10;;;9.60;1.00;;;;;;5060190;28;20239;-79
2021/10/16 07:52:33;;;;;;;9.50;4.30;;;9.70;1.00;;;;;;5062524;28;20223;-81
2021/10/16 07:55:00;;;;;;;6.97;4.60;;;9.90;1.00;;;;;;5063439;28;20461;-80
2021/10/16 07:57:28;;;;;;;7.45;3.70;;;9.90;1.00;;;;;;5060593;28;20227;-80
2021/10/16 07:59:55;;;;;;;10.30;4.23;;;10.10;1.00;;;;;;5075805;28;20221;-80
2021/10/16 08:02:21;;;;;;;11.68;5.28;;;10.20;1.00;;;;;;5092783;28;20453;-79
2021/10/16 08:04:48;;;;;;;8.97;3.50;;;10.30;1.00;;;;;;5084488;28;21186;-80
2021/10/16 08:07:14;;;;;;;8.43;3.70;;;10.50;1.00;;;;;;5067953;28;20611;-79
2021/10/16 08:09:41;;;;;;;6.77;3.90;;;10.70;1.00;;;;;;5067702;28;20470;-80
2021/10/16 08:12:08;;;;;;;8.60;4.40;;;10.90;1.00;;;;;;5070273;28;21252;-80
2021/10/16 08:14:36;;;;;;;8.47;5.30;;;11.20;1.00;;;;;;5067105;28;20445;-81
2021/10/16 08:17:02;;;;;;;7.90;4.37;;;11.50;1.00;;;;;;5070237;28;20416;-81
2021/10/16 08:19:29;;;;;;;9.03;4.50;;;11.80;1.00;;;;;;5065294;28;20456;-79
2021/10/16 08:21:56;;;;;;;9.00;4.17;;;12.10;1.00;;;;;;5069255;28;20543;-80
2021/10/16 08:24:23;;;;;;;7.63;3.40;;;12.20;1.00;;;;;;5065535;28;20543;-80
2021/10/16 08:26:49;;;;;;;8.47;3.10;;;12.40;1.00;;;;;;5068299;28;20463;-81
2021/10/16 08:29:16;;;;;;;7.13;3.07;;;12.60;1.00;;;;;;5065434;28;20540;-80
2021/10/16 08:31:44;;;;;;;6.70;3.53;;;12.60;1.00;;;;;;5065760;28;20466;-79
2021/10/16 08:34:11;;;;;;;15.37;4.77;;;12.80;1.00;;;;;;5061747;28;20477;-80
2021/10/16 08:36:38;;;;;;;10.07;3.37;;;12.60;1.00;;;;;;5067893;28;20419;-80
2021/10/16 08:39:05;;;;;;;8.30;3.50;;;12.70;1.00;;;;;;5060439;28;20558;-80
2021/10/16 08:41:33;;;;;;;6.50;3.50;;;13.10;1.00;;;;;;5061086;28;20463;-80
2021/10/16 08:44:00;;;;;;;5.50;2.90;;;13.60;1.00;;;;;;5066934;28;20461;-81
2021/10/16 08:46:28;;;;;;;9.80;3.50;;;14.00;1.00;;;;;;5062393;28;20478;-79
2021/10/16 08:49:02;;;;;;;6.50;3.13;;;14.30;1.00;;;;;;5064886;28;20450;-81
2021/10/16 08:51:28;;;;;;;7.60;2.67;;;14.40;1.00;;;;;;5059796;28;20463;-81
2021/10/16 08:53:55;;;;;;;8.07;3.37;;;14.40;1.00;;;;;;5072085;28;20454;-80
2021/10/16 08:56:22;;;;;;;9.90;4.57;;;14.20;1.00;;;;;;5078374;28;20411;-80
2021/10/16 08:58:50;;;;;;;6.00;3.27;;;14.00;1.00;;;;;;5078903;28;20919;-80
2021/10/16 09:01:17;;;;;;;7.03;3.03;;;13.70;1.00;;;;;;5080957;28;20526;-80
2021/10/16 09:03:46;;;;;;;7.90;3.30;;;13.50;1.00;;;;;;5065202;28;20427;-80
2021/10/16 09:06:16;;;;;;;8.50;3.50;;;13.20;1.00;;;;;;5060018;28;20483;-80
2021/10/16 09:08:46;;;;;;;9.20;3.10;;;13.00;1.00;;;;;;5062927;28;20534;-80
2021/10/16 09:11:28;;;;;;;9.23;3.50;;;12.80;1.00;;;;;;5065102;28;20548;-81
2021/10/16 09:13:58;;;;;;;6.80;3.10;;;12.70;1.00;;;;;;5068139;28;20517;-81
2021/10/16 09:16:28;;;;;;;7.47;3.07;;;12.60;1.00;;;;;;5063662;28;21187;-81
2021/10/16 09:18:57;;;;;;;7.63;3.53;;;12.60;1.00;;;;;;5062456;28;20455;-80
2021/10/16 09:21:27;;;;;;;6.63;3.53;;;12.80;1.00;;;;;;5062759;28;20755;-79
2021/10/16 09:24:04;;;;;;;4.87;2.50;;;13.10;1.00;;;;;;5061377;28;20432;-79
2021/10/16 09:26:31;;;;;;;5.40;3.23;;;13.40;1.00;;;;;;5055846;28;20442;-77
2021/10/16 09:29:00;;;;;;;5.20;2.00;;;13.60;1.00;;;;;;5062241;28;21329;-78
2021/10/16 09:31:36;;;;;;;4.53;2.77;;;13.70;1.00;;;;;;5058938;28;20561;-77
2021/10/16 09:34:04;;;;;;;6.93;3.40;;;13.80;1.00;;;;;;5062729;28;20430;-76
2021/10/16 09:36:34;;;;;;;6.47;3.40;;;14.30;1.00;;;;;;5058698;28;20525;-76
2021/10/16 09:39:01;;;;;;;5.80;3.00;;;14.50;1.00;;;;;;5050595;28;20541;-79
2021/10/16 09:41:29;;;;;;;4.37;2.57;;;14.60;1.00;;;;;;5064129;28;20546;-79
2021/10/16 09:43:57;;;;;;;6.87;2.33;;;14.60;1.00;;;;;;5070741;28;20419;-78
2021/10/16 09:46:25;;;;;;;5.90;2.60;;;14.70;1.00;;;;;;5071076;28;20444;-77
2021/10/16 09:48:52;;;;;;;8.17;2.70;;;14.90;1.00;;;;;;5067073;28;20475;-78
2021/10/16 09:51:20;;;;;;;5.70;3.03;;;15.00;1.00;;;;;;5058573;28;20542;-78
2021/10/16 09:53:50;;;;;;;6.13;2.83;;;15.00;1.00;;;;;;5064073;28;20512;-78
2021/10/16 09:56:18;;;;;;;7.73;2.73;;;15.10;1.00;;;;;;5061113;28;20956;-78
2021/10/16 09:58:44;;;;;;;4.27;1.90;;;15.10;1.00;;;;;;5061776;28;20440;-78
2021/10/16 10:01:12;;;;;;;5.43;2.30;;;15.10;1.00;;;;;;5062009;28;20461;-78
2021/10/16 10:03:42;;;;;;;6.97;3.70;;;15.00;1.00;;;;;;5064583;28;20993;-78
2021/10/16 10:06:10;;;;;;;5.20;2.17;;;15.10;1.00;;;;;;5067281;28;20476;-77
2021/10/16 10:08:36;;;;;;;10.67;3.07;;;15.10;1.00;;;;;;5063163;28;21307;-78
2021/10/16 10:11:05;;;;;;;4.83;2.53;;;15.10;1.00;;;;;;5065881;28;21271;-78
2021/10/16 10:13:34;;;;;;;7.20;1.90;;;15.20;1.00;;;;;;5064830;28;20437;-77
2021/10/16 10:16:00;;;;;;;5.00;2.60;;;15.30;1.00;;;;;;5065088;28;20468;-78
2021/10/16 10:21:12;;;;;;;3.37;1.73;;;15.90;1.00;;;;;;5069881;28;20461;-78
2021/10/16 10:23:53;;;;;;;7.83;2.27;;;16.00;1.00;;;;;;5069347;28;20449;-78
2021/10/16 10:26:27;;;;;;;7.40;2.03;;;16.10;1.00;;;;;;5069476;28;20559;-78
2021/10/16 10:28:56;;;;;;;3.63;2.27;;;16.10;1.00;;;;;;5073107;28;21007;-80
2021/10/16 10:31:58;;;;;;;9.37;3.90;;;16.30;1.00;;;;;;5059235;28;20968;-78
2021/10/16 10:34:39;;;;;;;5.27;1.70;;;16.30;1.00;;;;;;5067422;28;20441;-78
2021/10/16 10:37:10;;;;;;;4.10;1.60;;;16.40;1.00;;;;;;5064667;28;20465;-78
2021/10/16 10:39:53;;;;;;;6.20;1.97;;;16.20;1.00;;;;;;5074391;28;20483;-78
2021/10/16 10:42:50;;;;;;;7.27;2.27;;;16.00;1.00;;;;;;5062578;28;20452;-78
2021/10/16 10:45:31;;;;;;;3.10;1.80;;;15.90;1.00;;;;;;5071046;28;20664;-78
2021/10/16 10:48:01;;;;;;;3.53;1.97;;;16.00;1.00;;;;;;5083172;28;20461;-78
2021/10/16 10:50:50;;;;;;;4.70;2.27;;;16.20;1.00;;;;;;5071143;28;20555;-78
2021/10/16 10:53:28;;;;;;;4.50;2.10;;;16.60;1.00;;;;;;5061511;28;21052;-78
2021/10/16 10:55:57;;;;;;;4.03;1.53;;;17.00;1.00;;;;;;5068485;28;20497;-78
2021/10/16 10:59:14;;;;;;;5.20;1.70;;;17.10;1.00;;;;;;5064697;28;20876;-79
2021/10/16 11:01:52;;;;;;;5.47;2.30;;;17.00;1.00;;;;;;5061411;28;20484;-79
2021/10/16 11:04:54;;;;;;;4.03;1.97;;;16.90;1.00;;;;;;5068837;28;20486;-79
2021/10/16 11:07:34;;;;;;;4.33;1.80;;;17.00;1.00;;;;;;5018175;28;20440;-78
2021/10/16 11:10:01;;;;;;;3.57;2.30;;;17.10;1.00;;;;;;5022052;28;20459;-80
2021/10/16 11:12:30;;;;;;;3.70;3.40;;;17.50;1.00;;;;;;5048604;28;20461;-78
2021/10/16 11:15:00;;;;;;;4.33;1.70;;;17.80;1.00;;;;;;5067693;28;20439;-80
2021/10/16 11:17:35;;;;;;;3.13;1.63;;;18.50;1.00;;;;;;5066081;28;20451;-79
2021/10/16 11:20:05;;;;;;;4.67;1.90;;;19.10;1.00;;;;;;5065973;28;20489;-79
2021/10/16 11:22:49;;;;;;;12.13;1.80;;;19.60;1.00;;;;;;5059891;28;20572;-78
2021/10/16 11:25:21;;;;;;;6.00;2.03;;;20.50;1.00;;;;;;5063770;28;20459;-78
2021/10/16 11:28:05;;;;;;;4.17;1.63;;;21.30;1.00;;;;;;5062835;28;20453;-77
2021/10/16 11:30:35;;;;;;;4.23;1.50;;;21.60;1.00;;;;;;5061740;28;20445;-79
2021/10/16 11:33:04;;;;;;;4.43;1.60;;;22.00;1.00;;;;;;5063717;28;20671;-78
2021/10/16 11:35:31;;;;;;;3.73;1.57;;;22.90;1.00;;;;;;5063417;28;20446;-84
2021/10/16 11:37:59;;;;;;;3.90;1.80;;;23.70;1.00;;;;;;5062246;28;20449;-79
2021/10/16 11:40:28;;;;;;;3.47;2.10;;;24.90;1.00;;;;;;5065539;28;20470;-81
2021/10/16 11:42:56;;;;;;;2.87;1.27;;;25.80;1.00;;;;;;5059707;28;20421;-80
2021/10/16 11:45:24;;;;;;;4.27;1.70;;;25.40;1.00;;;;;;5066226;28;20477;-79
2021/10/16 11:47:54;;;;;;;3.20;1.30;;;24.70;1.00;;;;;;5060915;28;20473;-79
2021/10/16 11:50:23;;;;;;;2.77;1.60;;;23.90;1.00;;;;;;5070169;28;21263;-79
2021/10/16 11:52:51;;;;;;;4.87;2.03;;;22.20;1.00;;;;;;5060794;28;20449;-80
2021/10/16 11:55:21;;;;;;;3.43;1.70;;;20.60;1.00;;;;;;5070015;28;20469;-79
2021/10/16 11:57:49;;;;;;;8.73;2.10;;;19.20;1.00;;;;;;5060288;28;20442;-79
2021/10/16 12:00:25;;;;;;;10.20;4.30;;;18.10;1.00;;;;;;5062277;28;20459;-79
2021/10/16 12:02:54;;;;;;;4.03;1.33;;;17.40;1.00;;;;;;5062608;28;20411;-79
2021/10/16 12:05:22;;;;;;;3.90;1.80;;;16.80;1.00;;;;;;5077573;28;20454;-79
2021/10/16 12:07:50;;;;;;;4.80;2.03;;;16.50;1.00;;;;;;5072968;28;20418;-80
2021/10/16 12:10:21;;;;;;;3.10;2.23;;;16.20;1.00;;;;;;5063317;28;20599;-79
2021/10/16 12:13:03;;;;;;;6.10;1.93;;;15.90;1.00;;;;;;5061958;28;20468;-79
2021/10/16 12:15:41;;;;;;;3.97;3.13;;;15.70;1.00;;;;;;5067408;28;20433;-79
2021/10/16 12:18:22;;;;;;;5.80;2.07;;;15.60;1.00;;;;;;5068818;28;20427;-80
2021/10/16 12:20:55;;;;;;;5.73;2.50;;;15.60;1.00;;;;;;5060711;28;20465;-79
2021/10/16 12:23:24;;;;;;;4.60;1.80;;;15.50;1.00;;;;;;5061191;28;20444;-80
2021/10/16 12:25:54;;;;;;;3.60;1.87;;;15.40;1.00;;;;;;5067922;28;20545;-79
2021/10/16 12:28:21;;;;;;;4.40;1.80;;;15.40;1.00;;;;;;5076758;28;20457;-78
2021/10/16 12:31:03;;;;;;;4.73;1.83;;;15.60;1.00;;;;;;5068868;28;21900;-78
2021/10/16 12:33:31;;;;;;;5.07;1.77;;;15.80;1.00;;;;;;5070803;28;20414;-78
2021/10/16 12:35:59;;;;;;;4.10;1.90;;;15.90;1.00;;;;;;5070742;28;20456;-79
2021/10/16 12:38:27;;;;;;;6.20;2.33;;;16.00;1.00;;;;;;5069015;28;20592;-78
2021/10/16 12:40:54;;;;;;;5.27;2.53;;;15.80;1.00;;;;;;5082766;28;21376;-78
2021/10/16 12:43:25;;;;;;;3.60;2.10;;;15.60;1.00;;;;;;5077237;28;20400;-77
2021/10/16 12:45:52;;;;;;;3.03;1.83;;;15.50;1.00;;;;;;5072123;28;20455;-78
2021/10/16 12:48:23;;;;;;;5.97;2.63;;;15.50;1.00;;;;;;5070892;28;20449;-78
2021/10/16 12:50:52;;;;;;;5.90;1.80;;;15.40;1.00;;;;;;5079654;28;20474;-80
2021/10/16 12:53:18;;;;;;;4.40;1.73;;;15.30;1.00;;;;;;5076001;28;20447;-77
2021/10/16 12:55:45;;;;;;;5.80;3.63;;;15.30;1.00;;;;;;5082981;28;20954;-77
2021/10/16 12:58:15;;;;;;;3.93;1.83;;;15.20;1.00;;;;;;5067627;28;21100;-78
2021/10/16 13:00:42;;;;;;;2.97;1.60;;;15.10;1.00;;;;;;5070133;28;20475;-79
2021/10/16 13:03:10;;;;;;;5.63;1.80;;;14.90;1.00;;;;;;5076019;28;20479;-78
2021/10/16 13:05:37;;;;;;;3.20;1.83;;;14.80;1.00;;;;;;5076358;28;20474;-80
2021/10/16 13:08:07;;;;;;;4.37;1.67;;;14.70;1.00;;;;;;5081401;28;20447;-79
2021/10/16 13:10:35;;;;;;;3.50;1.63;;;14.60;1.00;;;;;;5073986;28;20887;-77
2021/10/16 13:13:02;;;;;;;4.53;2.07;;;14.50;1.00;;;;;;5076172;28;20526;-79